sensor_id;sensor_type;location;lat;lon;timestamp;pressure;altitude;pressure_sealevel;temperature;humidity
79639;BME280;69114;49.108;8.280;2024-03-23T00:53:41;99501.06;;;11.69;100.00
79639;BME280;69114;49.108;8.280;2024-03-23T00:56:06;99495.72;;;11.76;100.00
79639;BME280;69114;49.108;8.280;2024-03-23T00:58:32;99492.34;;;11.71;100.00
79639;BME280;69114;49.108;8.280;2024-03-23T01:00:57;99494.31;;;11.70;100.00
79639;BME280;69114;49.108;8.280;2024-03-23T01:03:22;99483.81;;;11.67;100.00
79639;BME280;69114;49.108;8.280;2024-03-23T01:05:48;99478.94;;;11.64;100.00
79639;BME280;69114;49.108;8.280;2024-03-23T01:08:14;99481.31;;;11.53;100.00
79639;BME280;69114;49.108;8.280;2024-03-23T01:10:39;99486.28;;;11.48;100.00
79639;BME280;69114;49.108;8.280;2024-03-23T01:13:05;99483.47;;;11.48;100.00
79639;BME280;69114;49.108;8.280;2024-03-23T01:15:30;99476.06;;;11.52;100.00
79639;BME280;69114;49.108;8.280;2024-03-23T01:17:55;99485.53;;;11.60;100.00
79639;BME280;69114;49.108;8.280;2024-03-23T01:20:20;99480.56;;;11.65;100.00
79639;BME280;69114;49.108;8.280;2024-03-23T01:22:46;99481.53;;;11.69;100.00
79639;BME280;69114;49.108;8.280;2024-03-23T01:25:11;99465.25;;;11.71;100.00
79639;BME280;69114;49.108;8.280;2024-03-23T01:27:36;99472.81;;;11.71;100.00
79639;BME280;69114;49.108;8.280;2024-03-23T01:30:02;99469.22;;;11.70;100.00
79639;BME280;69114;49.108;8.280;2024-03-23T01:32:27;99459.22;;;11.69;100.00
79639;BME280;69114;49.108;8.280;2024-03-23T01:34:53;99465.84;;;11.77;100.00
79639;BME280;69114;49.108;8.280;2024-03-23T01:37:18;99461.88;;;11.87;100.00
79639;BME280;69114;49.108;8.280;2024-03-23T01:39:44;99454.34;;;11.87;100.00
79639;BME280;69114;49.108;8.280;2024-03-23T01:42:09;99461.31;;;11.93;100.00
79639;BME280;69114;49.108;8.280;2024-03-23T01:44:34;99452.88;;;12.02;100.00
79639;BME280;69114;49.108;8.280;2024-03-23T01:47:00;99452.16;;;12.05;100.00
79639;BME280;69114;49.108;8.280;2024-03-23T01:49:25;99454.88;;;12.14;100.00
79639;BME280;69114;49.108;8.280;2024-03-23T01:51:51;99447.91;;;12.20;100.00
79639;BME280;69114;49.108;8.280;2024-03-23T01:54:16;99449.66;;;12.24;100.00
79639;BME280;69114;49.108;8.280;2024-03-23T01:56:42;99447.38;;;12.26;100.00
79639;BME280;69114;49.108;8.280;2024-03-23T01:59:07;99445.28;;;12.36;100.00
79639;BME280;69114;49.108;8.280;2024-03-23T02:01:34;99441.09;;;12.42;100.00
79639;BME280;69114;49.108;8.280;2024-03-23T02:04:01;99443.91;;;12.42;100.00
79639;BME280;69114;49.108;8.280;2024-03-23T02:06:27;99428.09;;;12.46;100.00
79639;BME280;69114;49.108;8.280;2024-03-23T02:08:53;99430.66;;;12.51;100.00
79639;BME280;69114;49.108;8.280;2024-03-23T02:11:19;99418.66;;;12.50;100.00
79639;BME280;69114;49.108;8.280;2024-03-23T02:13:44;99423.78;;;12.48;100.00
79639;BME280;69114;49.108;8.280;2024-03-23T02:16:10;99422.50;;;12.46;100.00
79639;BME280;69114;49.108;8.280;2024-03-23T02:18:35;99413.66;;;12.44;100.00
79639;BME280;69114;49.108;8.280;2024-03-23T02:21:01;99418.53;;;12.47;100.00
79639;BME280;69114;49.108;8.280;2024-03-23T02:23:26;99407.94;;;12.52;100.00
79639;BME280;69114;49.108;8.280;2024-03-23T02:25:52;99412.03;;;12.55;100.00
79639;BME280;69114;49.108;8.280;2024-03-23T02:28:18;99417.63;;;12.55;100.00
79639;BME280;69114;49.108;8.280;2024-03-23T02:30:44;99416.09;;;12.57;100.00
79639;BME280;69114;49.108;8.280;2024-03-23T02:33:10;99415.19;;;12.53;100.00
79639;BME280;69114;49.108;8.280;2024-03-23T02:35:35;99411.78;;;12.48;100.00
79639;BME280;69114;49.108;8.280;2024-03-23T02:38:00;99411.34;;;12.46;100.00
79639;BME280;69114;49.108;8.280;2024-03-23T02:40:27;99408.75;;;12.41;100.00
79639;BME280;69114;49.108;8.280;2024-03-23T02:42:53;99429.34;;;12.36;100.00
79639;BME280;69114;49.108;8.280;2024-03-23T02:45:18;99418.72;;;12.29;100.00
79639;BME280;69114;49.108;8.280;2024-03-23T02:47:44;99423.84;;;12.27;100.00
79639;BME280;69114;49.108;8.280;2024-03-23T02:50:09;99418.84;;;12.21;100.00
79639;BME280;69114;49.108;8.280;2024-03-23T02:52:36;99418.59;;;12.14;100.00
79639;BME280;69114;49.108;8.280;2024-03-23T02:55:02;99418.00;;;12.08;100.00
79639;BME280;69114;49.108;8.280;2024-03-23T02:57:27;99418.56;;;12.01;100.00
79639;BME280;69114;49.108;8.280;2024-03-23T02:59:53;99407.94;;;11.95;100.00
79639;BME280;69114;49.108;8.280;2024-03-23T03:02:18;99418.44;;;11.98;100.00
79639;BME280;69114;49.108;8.280;2024-03-23T03:04:43;99414.91;;;11.89;100.00
79639;BME280;69114;49.108;8.280;2024-03-23T03:07:09;99413.34;;;11.79;100.00
79639;BME280;69114;49.108;8.280;2024-03-23T03:09:34;99407.72;;;11.88;100.00
79639;BME280;69114;49.108;8.280;2024-03-23T03:12:01;99424.66;;;11.83;100.00
79639;BME280;69114;49.108;8.280;2024-03-23T03:14:27;99419.09;;;11.83;100.00
79639;BME280;69114;49.108;8.280;2024-03-23T03:16:53;99422.34;;;11.85;100.00
79639;BME280;69114;49.108;8.280;2024-03-23T03:19:18;99425.94;;;11.85;100.00
79639;BME280;69114;49.108;8.280;2024-03-23T03:21:44;99426.22;;;11.92;100.00
79639;BME280;69114;49.108;8.280;2024-03-23T03:24:09;99422.59;;;11.92;100.00
79639;BME280;69114;49.108;8.280;2024-03-23T03:26:34;99413.28;;;11.88;100.00
79639;BME280;69114;49.108;8.280;2024-03-23T03:29:00;99421.31;;;11.89;100.00
79639;BME280;69114;49.108;8.280;2024-03-23T03:31:25;99410.16;;;11.89;100.00
79639;BME280;69114;49.108;8.280;2024-03-23T03:33:51;99414.34;;;11.95;100.00
79639;BME280;69114;49.108;8.280;2024-03-23T03:36:16;99423.75;;;11.91;100.00
79639;BME280;69114;49.108;8.280;2024-03-23T03:38:42;99429.59;;;11.98;100.00
79639;BME280;69114;49.108;8.280;2024-03-23T03:41:07;99425.41;;;11.92;100.00
79639;BME280;69114;49.108;8.280;2024-03-23T03:43:33;99415.47;;;11.82;100.00
79639;BME280;69114;49.108;8.280;2024-03-23T03:45:59;99414.78;;;11.85;100.00
79639;BME280;69114;49.108;8.280;2024-03-23T03:48:25;99422.06;;;11.77;100.00
79639;BME280;69114;49.108;8.280;2024-03-23T03:50:52;99416.56;;;11.69;100.00
79639;BME280;69114;49.108;8.280;2024-03-23T03:53:17;99423.63;;;11.66;100.00
79639;BME280;69114;49.108;8.280;2024-03-23T03:55:42;99412.47;;;11.66;100.00
79639;BME280;69114;49.108;8.280;2024-03-23T03:58:08;99403.56;;;11.52;100.00
79639;BME280;69114;49.108;8.280;2024-03-23T04:00:33;99397.63;;;11.53;100.00
79639;BME280;69114;49.108;8.280;2024-03-23T04:02:58;99400.09;;;11.55;100.00
79639;BME280;69114;49.108;8.280;2024-03-23T04:05:24;99393.56;;;11.51;100.00
79639;BME280;69114;49.108;8.280;2024-03-23T04:07:49;99390.72;;;11.60;100.00
79639;BME280;69114;49.108;8.280;2024-03-23T04:10:14;99394.53;;;11.55;100.00
79639;BME280;69114;49.108;8.280;2024-03-23T04:12:40;99387.72;;;11.44;100.00
79639;BME280;69114;49.108;8.280;2024-03-23T04:15:06;99391.13;;;11.49;100.00
79639;BME280;69114;49.108;8.280;2024-03-23T04:17:32;99387.72;;;11.44;100.00
79639;BME280;69114;49.108;8.280;2024-03-23T04:19:59;99408.13;;;11.36;100.00
79639;BME280;69114;49.108;8.280;2024-03-23T04:22:25;99408.13;;;11.36;100.00
79639;BME280;69114;49.108;8.280;2024-03-23T04:24:53;99417.84;;;11.29;100.00
79639;BME280;69114;49.108;8.280;2024-03-23T04:27:19;99412.66;;;11.19;100.00
79639;BME280;69114;49.108;8.280;2024-03-23T04:29:48;99413.47;;;11.20;100.00
79639;BME280;69114;49.108;8.280;2024-03-23T04:32:14;99407.09;;;11.19;100.00
79639;BME280;69114;49.108;8.280;2024-03-23T04:34:39;99408.59;;;11.17;100.00
79639;BME280;69114;49.108;8.280;2024-03-23T04:37:05;99412.72;;;11.11;100.00
79639;BME280;69114;49.108;8.280;2024-03-23T04:39:30;99403.09;;;11.08;100.00
79639;BME280;69114;49.108;8.280;2024-03-23T04:41:56;99386.38;;;11.08;100.00
79639;BME280;69114;49.108;8.280;2024-03-23T04:44:21;99388.81;;;11.10;100.00
79639;BME280;69114;49.108;8.280;2024-03-23T04:46:46;99396.09;;;11.02;100.00
79639;BME280;69114;49.108;8.280;2024-03-23T04:49:12;99411.16;;;11.01;100.00
79639;BME280;69114;49.108;8.280;2024-03-23T04:51:37;99412.16;;;10.96;100.00
79639;BME280;69114;49.108;8.280;2024-03-23T04:54:03;99420.06;;;10.94;100.00
79639;BME280;69114;49.108;8.280;2024-03-23T04:56:29;99411.22;;;10.92;100.00
79639;BME280;69114;49.108;8.280;2024-03-23T04:58:55;99420.50;;;10.75;100.00
79639;BME280;69114;49.108;8.280;2024-03-23T05:01:20;99428.69;;;10.72;100.00
79639;BME280;69114;49.108;8.280;2024-03-23T05:03:45;99428.91;;;10.58;100.00
79639;BME280;69114;49.108;8.280;2024-03-23T05:06:10;99427.00;;;10.50;100.00
79639;BME280;69114;49.108;8.280;2024-03-23T05:08:36;99443.09;;;10.36;100.00
79639;BME280;69114;49.108;8.280;2024-03-23T05:11:01;99428.41;;;10.27;100.00
79639;BME280;69114;49.108;8.280;2024-03-23T05:13:27;99418.25;;;10.13;100.00
79639;BME280;69114;49.108;8.280;2024-03-23T05:15:53;99429.56;;;10.08;100.00
79639;BME280;69114;49.108;8.280;2024-03-23T05:18:19;99423.53;;;9.97;100.00
79639;BME280;69114;49.108;8.280;2024-03-23T05:20:45;99444.16;;;9.88;100.00
79639;BME280;69114;49.108;8.280;2024-03-23T05:23:10;99444.81;;;9.85;100.00
79639;BME280;69114;49.108;8.280;2024-03-23T05:25:35;99454.97;;;9.81;100.00
79639;BME280;69114;49.108;8.280;2024-03-23T05:28:01;99463.00;;;9.73;100.00
79639;BME280;69114;49.108;8.280;2024-03-23T05:30:26;99470.66;;;9.77;100.00
79639;BME280;69114;49.108;8.280;2024-03-23T05:32:51;99479.00;;;9.68;100.00
79639;BME280;69114;49.108;8.280;2024-03-23T05:35:16;99481.13;;;9.62;100.00
79639;BME280;69114;49.108;8.280;2024-03-23T05:37:42;99489.63;;;9.57;100.00
79639;BME280;69114;49.108;8.280;2024-03-23T05:40:07;99507.81;;;9.55;100.00
79639;BME280;69114;49.108;8.280;2024-03-23T05:42:34;99523.81;;;9.49;100.00
79639;BME280;69114;49.108;8.280;2024-03-23T05:44:59;99538.38;;;9.46;100.00
79639;BME280;69114;49.108;8.280;2024-03-23T05:47:25;99543.56;;;9.39;100.00
79639;BME280;69114;49.108;8.280;2024-03-23T05:49:50;99545.06;;;9.36;100.00
79639;BME280;69114;49.108;8.280;2024-03-23T05:52:17;99556.97;;;9.37;100.00
79639;BME280;69114;49.108;8.280;2024-03-23T05:54:42;99568.25;;;9.32;100.00
79639;BME280;69114;49.108;8.280;2024-03-23T05:57:09;99576.41;;;9.28;100.00
79639;BME280;69114;49.108;8.280;2024-03-23T05:59:34;99591.44;;;9.27;100.00
79639;BME280;69114;49.108;8.280;2024-03-23T06:02:00;99576.41;;;9.28;100.00
79639;BME280;69114;49.108;8.280;2024-03-23T06:04:25;99586.03;;;9.22;100.00
79639;BME280;69114;49.108;8.280;2024-03-23T06:06:51;99592.56;;;9.17;100.00
79639;BME280;69114;49.108;8.280;2024-03-23T06:09:17;99606.94;;;9.19;100.00
79639;BME280;69114;49.108;8.280;2024-03-23T06:11:42;99591.69;;;9.08;100.00
79639;BME280;69114;49.108;8.280;2024-03-23T06:14:08;99595.63;;;9.07;100.00
79639;BME280;69114;49.108;8.280;2024-03-23T06:16:33;99607.38;;;9.04;100.00
79639;BME280;69114;49.108;8.280;2024-03-23T06:18:58;99602.28;;;9.06;100.00
79639;BME280;69114;49.108;8.280;2024-03-23T06:21:24;99633.00;;;9.01;100.00
79639;BME280;69114;49.108;8.280;2024-03-23T06:23:51;99653.59;;;9.00;100.00
79639;BME280;69114;49.108;8.280;2024-03-23T06:26:18;99659.66;;;9.02;100.00
79639;BME280;69114;49.108;8.280;2024-03-23T06:28:44;99652.97;;;9.03;100.00
79639;BME280;69114;49.108;8.280;2024-03-23T06:31:10;99654.06;;;8.93;100.00
79639;BME280;69114;49.108;8.280;2024-03-23T06:33:35;99659.41;;;8.90;100.00
79639;BME280;69114;49.108;8.280;2024-03-23T06:36:01;99663.34;;;8.89;100.00
79639;BME280;69114;49.108;8.280;2024-03-23T06:38:27;99660.03;;;8.87;100.00
79639;BME280;69114;49.108;8.280;2024-03-23T06:40:52;99660.84;;;8.87;100.00
79639;BME280;69114;49.108;8.280;2024-03-23T06:43:18;99673.16;;;8.95;100.00
79639;BME280;69114;49.108;8.280;2024-03-23T06:45:43;99680.34;;;8.96;100.00
79639;BME280;69114;49.108;8.280;2024-03-23T06:48:09;99687.53;;;8.97;100.00
79639;BME280;69114;49.108;8.280;2024-03-23T06:50:34;99697.28;;;8.86;100.00
79639;BME280;69114;49.108;8.280;2024-03-23T06:53:00;99716.59;;;8.91;100.00
79639;BME280;69114;49.108;8.280;2024-03-23T06:55:27;99718.00;;;8.80;100.00
79639;BME280;69114;49.108;8.280;2024-03-23T06:57:53;99727.59;;;8.74;100.00
79639;BME280;69114;49.108;8.280;2024-03-23T07:00:18;99727.19;;;8.66;100.00
79639;BME280;69114;49.108;8.280;2024-03-23T07:02:44;99747.59;;;8.48;100.00
79639;BME280;69114;49.108;8.280;2024-03-23T07:05:10;99737.97;;;8.32;100.00
79639;BME280;69114;49.108;8.280;2024-03-23T07:07:37;99741.34;;;8.29;100.00
79639;BME280;69114;49.108;8.280;2024-03-23T07:10:02;99748.78;;;8.19;100.00
79639;BME280;69114;49.108;8.280;2024-03-23T07:12:28;99738.94;;;8.13;100.00
79639;BME280;69114;49.108;8.280;2024-03-23T07:14:53;99759.97;;;8.14;100.00
79639;BME280;69114;49.108;8.280;2024-03-23T07:17:19;99761.44;;;7.98;100.00
79639;BME280;69114;49.108;8.280;2024-03-23T07:19:44;99773.13;;;7.95;100.00
79639;BME280;69114;49.108;8.280;2024-03-23T07:22:09;99764.00;;;7.94;100.00
79639;BME280;69114;49.108;8.280;2024-03-23T07:24:35;99789.66;;;8.00;100.00
79639;BME280;69114;49.108;8.280;2024-03-23T07:27:00;99796.25;;;8.04;100.00
79639;BME280;69114;49.108;8.280;2024-03-23T07:29:27;99800.66;;;8.05;100.00
79639;BME280;69114;49.108;8.280;2024-03-23T07:31:52;99812.69;;;8.14;100.00
79639;BME280;69114;49.108;8.280;2024-03-23T07:34:18;99812.19;;;8.12;100.00
79639;BME280;69114;49.108;8.280;2024-03-23T07:36:43;99826.56;;;8.14;100.00
79639;BME280;69114;49.108;8.280;2024-03-23T07:39:08;99838.69;;;8.18;100.00
79639;BME280;69114;49.108;8.280;2024-03-23T07:41:34;99848.56;;;8.52;100.00
79639;BME280;69114;49.108;8.280;2024-03-23T07:44:00;99858.81;;;8.65;100.00
79639;BME280;69114;49.108;8.280;2024-03-23T07:46:26;99855.19;;;8.79;100.00
79639;BME280;69114;49.108;8.280;2024-03-23T07:48:51;99864.56;;;9.05;100.00
79639;BME280;69114;49.108;8.280;2024-03-23T07:51:21;99860.78;;;9.01;100.00
79639;BME280;69114;49.108;8.280;2024-03-23T07:53:48;99874.53;;;8.84;100.00
79639;BME280;69114;49.108;8.280;2024-03-23T07:56:14;99880.81;;;8.62;100.00
79639;BME280;69114;49.108;8.280;2024-03-23T07:58:44;99882.69;;;8.53;100.00
79639;BME280;69114;49.108;8.280;2024-03-23T08:01:12;99881.53;;;8.54;100.00
79639;BME280;69114;49.108;8.280;2024-03-23T08:03:39;99885.88;;;8.46;100.00
79639;BME280;69114;49.108;8.280;2024-03-23T08:06:15;99897.44;;;8.34;100.00
79639;BME280;69114;49.108;8.280;2024-03-23T08:08:42;99906.84;;;8.52;100.00
79639;BME280;69114;49.108;8.280;2024-03-23T08:11:08;99905.31;;;8.60;100.00
79639;BME280;69114;49.108;8.280;2024-03-23T08:13:35;99910.66;;;8.70;100.00
79639;BME280;69114;49.108;8.280;2024-03-23T08:16:01;99910.53;;;9.11;100.00
79639;BME280;69114;49.108;8.280;2024-03-23T08:18:27;99908.56;;;9.48;98.07
79639;BME280;69114;49.108;8.280;2024-03-23T08:21:03;99910.09;;;9.32;97.21
79639;BME280;69114;49.108;8.280;2024-03-23T08:23:29;99920.34;;;9.45;96.07
79639;BME280;69114;49.108;8.280;2024-03-23T08:25:58;99915.59;;;9.45;92.14
79639;BME280;69114;49.108;8.280;2024-03-23T08:28:24;99935.09;;;9.54;92.59
79639;BME280;69114;49.108;8.280;2024-03-23T08:30:49;99920.44;;;9.40;90.16
79639;BME280;69114;49.108;8.280;2024-03-23T08:33:15;99920.47;;;9.62;89.08
79639;BME280;69114;49.108;8.280;2024-03-23T08:35:41;99916.28;;;9.51;87.20
79639;BME280;69114;49.108;8.280;2024-03-23T08:38:06;99921.41;;;9.58;85.01
79639;BME280;69114;49.108;8.280;2024-03-23T08:40:32;99924.19;;;10.03;83.75
79639;BME280;69114;49.108;8.280;2024-03-23T08:42:57;99926.16;;;10.11;82.87
79639;BME280;69114;49.108;8.280;2024-03-23T08:45:24;99926.91;;;10.25;79.16
79639;BME280;69114;49.108;8.280;2024-03-23T08:47:49;99934.50;;;10.02;76.39
79639;BME280;69114;49.108;8.280;2024-03-23T08:50:15;99929.44;;;9.82;76.44
79639;BME280;69114;49.108;8.280;2024-03-23T08:52:40;99938.44;;;10.10;78.64
79639;BME280;69114;49.108;8.280;2024-03-23T08:55:06;99943.38;;;10.13;76.47
79639;BME280;69114;49.108;8.280;2024-03-23T08:57:31;99946.09;;;10.27;77.27
79639;BME280;69114;49.108;8.280;2024-03-23T08:59:57;99947.75;;;10.28;77.04
79639;BME280;69114;49.108;8.280;2024-03-23T09:02:23;99951.94;;;10.47;72.71
79639;BME280;69114;49.108;8.280;2024-03-23T09:04:48;99942.28;;;10.45;73.98
79639;BME280;69114;49.108;8.280;2024-03-23T09:07:13;99943.69;;;10.73;70.87
79639;BME280;69114;49.108;8.280;2024-03-23T09:12:13;99958.84;;;11.07;66.64
79639;BME280;69114;49.108;8.280;2024-03-23T09:14:39;99971.72;;;10.86;69.73
79639;BME280;69114;49.108;8.280;2024-03-23T09:17:04;99964.69;;;10.80;69.73
79639;BME280;69114;49.108;8.280;2024-03-23T09:19:30;99970.03;;;10.67;67.34
79639;BME280;69114;49.108;8.280;2024-03-23T09:21:55;99958.97;;;10.45;68.72
79639;BME280;69114;49.108;8.280;2024-03-23T09:24:21;99949.91;;;10.31;70.06
79639;BME280;69114;49.108;8.280;2024-03-23T09:26:46;99959.56;;;10.11;71.01
79639;BME280;69114;49.108;8.280;2024-03-23T09:29:12;99960.91;;;9.91;72.49
79639;BME280;69114;49.108;8.280;2024-03-23T09:31:39;99954.25;;;10.00;73.42
79639;BME280;69114;49.108;8.280;2024-03-23T09:34:04;99955.91;;;10.01;72.24
79639;BME280;69114;49.108;8.280;2024-03-23T09:36:30;99957.13;;;9.87;73.90
79639;BME280;69114;49.108;8.280;2024-03-23T09:38:55;99947.59;;;9.79;71.97
79639;BME280;69114;49.108;8.280;2024-03-23T09:41:20;99955.47;;;9.86;71.54
79639;BME280;69114;49.108;8.280;2024-03-23T09:43:46;99953.16;;;10.10;71.62
79639;BME280;69114;49.108;8.280;2024-03-23T09:46:14;99962.97;;;10.30;70.06
79639;BME280;69114;49.108;8.280;2024-03-23T09:48:39;99950.16;;;9.98;71.89
79639;BME280;69114;49.108;8.280;2024-03-23T09:51:04;99985.16;;;9.54;78.44
79639;BME280;69114;49.108;8.280;2024-03-23T09:53:30;99995.56;;;8.57;100.00
79639;BME280;69114;49.108;8.280;2024-03-23T09:55:56;99989.06;;;7.50;100.00
79639;BME280;69114;49.108;8.280;2024-03-23T09:58:23;99987.16;;;6.89;100.00
79639;BME280;69114;49.108;8.280;2024-03-23T10:00:48;99987.31;;;6.74;100.00
79639;BME280;69114;49.108;8.280;2024-03-23T10:03:14;99985.34;;;6.79;100.00
79639;BME280;69114;49.108;8.280;2024-03-23T10:05:39;99982.59;;;6.98;100.00
79639;BME280;69114;49.108;8.280;2024-03-23T10:10:42;99981.47;;;6.99;100.00
79639;BME280;69114;49.108;8.280;2024-03-23T10:13:08;99987.66;;;6.91;100.00
79639;BME280;69114;49.108;8.280;2024-03-23T10:15:35;99984.47;;;7.03;100.00
79639;BME280;69114;49.108;8.280;2024-03-23T10:18:30;99974.91;;;7.14;100.00
79639;BME280;69114;49.108;8.280;2024-03-23T10:23:35;99991.22;;;7.53;100.00
79639;BME280;69114;49.108;8.280;2024-03-23T10:26:24;99983.38;;;7.60;100.00
79639;BME280;69114;49.108;8.280;2024-03-23T10:28:58;99988.56;;;7.81;100.00
79639;BME280;69114;49.108;8.280;2024-03-23T10:31:26;99976.09;;;7.97;100.00
79639;BME280;69114;49.108;8.280;2024-03-23T10:33:52;99978.13;;;7.91;100.00
79639;BME280;69114;49.108;8.280;2024-03-23T10:36:20;99975.63;;;8.09;100.00
79639;BME280;69114;49.108;8.280;2024-03-23T10:38:46;99982.09;;;8.37;100.00
79639;BME280;69114;49.108;8.280;2024-03-23T10:41:12;99968.72;;;8.53;100.00
79639;BME280;69114;49.108;8.280;2024-03-23T10:43:38;99968.53;;;8.90;100.00
79639;BME280;69114;49.108;8.280;2024-03-23T10:46:04;99974.38;;;9.16;100.00
79639;BME280;69114;49.108;8.280;2024-03-23T10:48:32;99975.34;;;9.34;100.00
79639;BME280;69114;49.108;8.280;2024-03-23T10:50:57;99968.59;;;9.49;100.00
79639;BME280;69114;49.108;8.280;2024-03-23T10:53:25;99973.50;;;9.30;100.00
79639;BME280;69114;49.108;8.280;2024-03-23T10:55:52;99956.72;;;9.57;99.39
79639;BME280;69114;49.108;8.280;2024-03-23T10:58:24;99964.84;;;9.90;98.06
79639;BME280;69114;49.108;8.280;2024-03-23T11:00:52;99966.22;;;10.01;95.44
79639;BME280;69114;49.108;8.280;2024-03-23T11:05:57;99960.31;;;10.56;89.69
79639;BME280;69114;49.108;8.280;2024-03-23T11:08:40;99970.66;;;11.04;82.68
79639;BME280;69114;49.108;8.280;2024-03-23T11:11:22;99980.56;;;10.79;75.47
79639;BME280;69114;49.108;8.280;2024-03-23T11:13:51;99965.91;;;10.56;75.82
79639;BME280;69114;49.108;8.280;2024-03-23T11:16:21;99982.56;;;10.87;74.87
79639;BME280;69114;49.108;8.280;2024-03-23T11:18:47;99948.47;;;10.42;73.36
79639;BME280;69114;49.108;8.280;2024-03-23T11:24:16;99949.09;;;10.39;72.32
79639;BME280;69114;49.108;8.280;2024-03-23T11:26:41;99952.41;;;10.41;72.88
79639;BME280;69114;49.108;8.280;2024-03-23T11:29:13;99963.81;;;10.70;68.23
79639;BME280;69114;49.108;8.280;2024-03-23T11:31:38;99934.41;;;11.04;65.44
79639;BME280;69114;49.108;8.280;2024-03-23T11:34:05;99945.94;;;11.37;65.17
79639;BME280;69114;49.108;8.280;2024-03-23T11:36:31;99943.81;;;11.77;64.27
79639;BME280;69114;49.108;8.280;2024-03-23T11:38:56;99945.66;;;12.38;58.69
79639;BME280;69114;49.108;8.280;2024-03-23T11:41:22;99930.66;;;11.87;61.05
79639;BME280;69114;49.108;8.280;2024-03-23T11:43:47;99928.28;;;12.23;61.52
79639;BME280;69114;49.108;8.280;2024-03-23T11:46:22;99928.19;;;11.68;63.68
79639;BME280;69114;49.108;8.280;2024-03-23T11:48:50;99930.63;;;11.00;66.98
79639;BME280;69114;49.108;8.280;2024-03-23T11:51:19;99924.13;;;10.56;67.66
79639;BME280;69114;49.108;8.280;2024-03-23T11:53:45;99926.72;;;11.10;67.75
79639;BME280;69114;49.108;8.280;2024-03-23T11:56:10;99914.94;;;11.21;64.96
79639;BME280;69114;49.108;8.280;2024-03-23T11:58:35;99912.91;;;10.96;62.15
79639;BME280;69114;49.108;8.280;2024-03-23T12:01:02;99903.72;;;10.87;64.41
79639;BME280;69114;49.108;8.280;2024-03-23T12:03:29;99913.19;;;10.68;61.88
79639;BME280;69114;49.108;8.280;2024-03-23T12:05:57;99900.34;;;10.50;60.70
79639;BME280;69114;49.108;8.280;2024-03-23T12:08:32;99893.72;;;10.29;63.18
79639;BME280;69114;49.108;8.280;2024-03-23T12:11:17;99921.16;;;9.68;73.16
79639;BME280;69114;49.108;8.280;2024-03-23T12:13:43;99948.22;;;8.35;91.39
79639;BME280;69114;49.108;8.280;2024-03-23T12:16:20;99925.19;;;7.41;100.00
79639;BME280;69114;49.108;8.280;2024-03-23T12:18:50;99910.44;;;8.53;100.00
79639;BME280;69114;49.108;8.280;2024-03-23T12:21:20;99906.41;;;8.59;100.00
79639;BME280;69114;49.108;8.280;2024-03-23T12:23:48;99894.81;;;8.43;100.00
79639;BME280;69114;49.108;8.280;2024-03-23T12:26:15;99899.75;;;8.46;100.00
79639;BME280;69114;49.108;8.280;2024-03-23T12:28:41;99908.47;;;8.53;100.00
79639;BME280;69114;49.108;8.280;2024-03-23T12:31:07;99907.97;;;8.65;100.00
79639;BME280;69114;49.108;8.280;2024-03-23T12:33:32;99904.66;;;8.77;100.00
79639;BME280;69114;49.108;8.280;2024-03-23T12:35:58;99904.75;;;8.85;100.00
79639;BME280;69114;49.108;8.280;2024-03-23T12:38:23;99897.44;;;8.89;100.00
79639;BME280;69114;49.108;8.280;2024-03-23T12:40:49;99898.91;;;8.73;100.00
79639;BME280;69114;49.108;8.280;2024-03-23T12:43:15;99938.19;;;8.66;100.00
79639;BME280;69114;49.108;8.280;2024-03-23T12:45:40;99994.34;;;7.84;100.00
79639;BME280;69114;49.108;8.280;2024-03-23T12:48:06;99965.28;;;6.15;100.00
79639;BME280;69114;49.108;8.280;2024-03-23T12:50:32;100020.94;;;5.64;100.00
79639;BME280;69114;49.108;8.280;2024-03-23T12:52:57;99995.09;;;5.50;100.00
79639;BME280;69114;49.108;8.280;2024-03-23T12:55:23;99964.13;;;5.53;100.00
79639;BME280;69114;49.108;8.280;2024-03-23T12:57:48;99966.06;;;5.92;100.00
79639;BME280;69114;49.108;8.280;2024-03-23T13:00:13;99972.69;;;6.20;100.00
79639;BME280;69114;49.108;8.280;2024-03-23T13:02:41;99979.69;;;6.41;100.00
79639;BME280;69114;49.108;8.280;2024-03-23T13:05:06;99981.13;;;6.58;100.00
79639;BME280;69114;49.108;8.280;2024-03-23T13:07:33;99961.22;;;8.81;100.00
79639;BME280;69114;49.108;8.280;2024-03-23T13:09:58;99961.34;;;10.29;97.99
79639;BME280;69114;49.108;8.280;2024-03-23T13:12:24;99963.19;;;10.82;94.55
79639;BME280;69114;49.108;8.280;2024-03-23T13:14:49;99945.97;;;10.32;87.53
79639;BME280;69114;49.108;8.280;2024-03-23T13:17:14;99948.84;;;11.15;78.49
79639;BME280;69114;49.108;8.280;2024-03-23T13:19:40;99957.09;;;10.71;87.58
79639;BME280;69114;49.108;8.280;2024-03-23T13:22:06;99952.03;;;10.73;85.64
79639;BME280;69114;49.108;8.280;2024-03-23T13:24:31;99961.03;;;10.70;87.08
79639;BME280;69114;49.108;8.280;2024-03-23T13:26:57;99955.66;;;9.08;92.51
79639;BME280;69114;49.108;8.280;2024-03-23T13:29:23;99955.78;;;9.26;94.81
79639;BME280;69114;49.108;8.280;2024-03-23T13:31:50;99956.00;;;9.88;88.58
79639;BME280;69114;49.108;8.280;2024-03-23T13:34:16;99943.00;;;11.86;79.29
79639;BME280;69114;49.108;8.280;2024-03-23T13:36:42;99942.44;;;12.95;76.84
79639;BME280;69114;49.108;8.280;2024-03-23T13:39:08;99924.34;;;13.01;71.62
79639;BME280;69114;49.108;8.280;2024-03-23T13:41:40;99930.00;;;13.13;66.12
79639;BME280;69114;49.108;8.280;2024-03-23T13:44:06;99927.50;;;12.14;65.58
79639;BME280;69114;49.108;8.280;2024-03-23T13:46:32;99914.31;;;10.67;75.56
79639;BME280;69114;49.108;8.280;2024-03-23T13:48:58;99931.97;;;9.69;80.34
79639;BME280;69114;49.108;8.280;2024-03-23T13:51:24;99940.63;;;9.09;84.26
79639;BME280;69114;49.108;8.280;2024-03-23T13:53:52;99963.59;;;8.46;93.82
79639;BME280;69114;49.108;8.280;2024-03-23T13:56:17;99985.13;;;6.95;100.00
79639;BME280;69114;49.108;8.280;2024-03-23T13:58:43;99996.13;;;5.59;100.00